Time;durP1;ratioP1;P1;durP2;ratioP2;P2;SDS_P1;SDS_P2;PMS_P1;PMS_P2;Temp;Humidity;BMP_temperature;BMP_pressure;BME280_temperature;BME280_humidity;BME280_pressure;Samples;Min_cycle;Max_cycle;Signal;HPM_P1;HPM_P2
2022/02/03 00:00:05;;;;;;;46.13;21.60;;;;;;;0.23;100.00;99727.72;6325591;28;20494;-69
2022/02/03 00:06:14;;;;;;;33.08;18.40;;;;;;;0.21;100.00;99739.72;6325466;28;20067;-73
2022/02/03 00:25:47;;;;;;;40.10;21.70;;;;;;;0.18;100.00;99775.72;6293082;28;20052;-69
2022/02/03 00:28:48;;;;;;;40.63;21.83;;;;;;;0.24;100.00;99779.88;6324869;28;20040;-69
2022/02/03 00:32:03;;;;;;;47.23;23.53;;;;;;;0.15;100.00;99783.50;6306874;28;20036;-69
2022/02/03 00:38:26;;;;;;;43.33;21.27;;;;;;;0.32;100.00;99795.94;6304188;28;20520;-73
2022/02/03 00:51:07;;;;;;;36.65;21.05;;;;;;;0.06;100.00;99814.47;6284884;28;20036;-68
2022/02/03 00:54:10;;;;;;;40.53;21.40;;;;;;;0.06;100.00;99824.72;6267386;28;20695;-69
2022/02/03 00:57:19;;;;;;;41.13;21.23;;;;;;;0.08;100.00;99825.53;6281846;28;20049;-69
2022/02/03 01:00:21;;;;;;;38.72;21.23;;;;;;;0.06;100.00;99832.44;6299987;28;20039;-73
2022/02/03 01:03:27;;;;;;;38.40;20.67;;;;;;;0.10;100.00;99839.19;6281846;28;20047;-73
2022/02/03 01:06:32;;;;;;;39.50;20.55;;;;;;;0.01;100.00;99847.09;6281974;28;20044;-72
2022/02/03 01:09:37;;;;;;;38.97;19.58;;;;;;;0.04;100.00;99855.53;6299237;28;20123;-68
2022/02/03 01:16:26;;;;;;;36.08;18.95;;;;;;;0.09;100.00;99866.56;6282219;28;20061;-69
2022/02/03 01:45:57;;;;;;;31.50;17.90;;;;;;;0.07;100.00;99880.31;6321760;28;20085;-73
2022/02/03 01:49:14;;;;;;;37.17;18.52;;;;;;;-0.02;100.00;99886.47;6288772;28;20097;-73
2022/02/03 01:52:31;;;;;;;33.40;16.95;;;;;;;-0.07;100.00;99889.13;6290244;28;20047;-73
2022/02/03 01:55:32;;;;;;;33.70;16.77;;;;;;;-0.02;100.00;99899.31;6315754;28;20702;-73
2022/02/03 01:58:36;;;;;;;33.08;16.55;;;;;;;-0.03;100.00;99906.13;6279828;28;20051;-73
2022/02/03 02:01:38;;;;;;;31.30;17.40;;;;;;;-0.02;100.00;99923.22;6297639;28;20066;-72
2022/02/03 02:05:06;;;;;;;29.90;17.63;;;;;;;-0.02;100.00;99924.97;6297369;28;20040;-73
2022/02/03 02:08:31;;;;;;;35.35;17.73;;;;;;;-0.01;100.00;99927.47;6296873;28;20040;-72
2022/02/03 02:12:17;;;;;;;31.25;16.10;;;;;;;-0.04;100.00;99924.97;6297325;28;20079;-73
2022/02/03 02:45:11;;;;;;;29.92;14.05;;;;;;;0.15;100.00;99969.06;6296577;28;20032;-73
2022/02/03 02:48:37;;;;;;;26.90;13.55;;;;;;;0.09;100.00;99971.75;6278598;28;20049;-72
2022/02/03 02:51:59;;;;;;;24.00;11.98;;;;;;;0.07;100.00;99980.38;6296571;28;20077;-73
2022/02/03 03:02:08;;;;;;;22.90;11.93;;;;;;;0.03;100.00;100002.66;6278349;28;20052;-73
2022/02/03 03:38:53;;;;;;;18.35;9.57;;;;;;;-0.14;100.00;100044.00;6292027;28;20148;-69
2022/02/03 03:41:59;;;;;;;18.88;8.88;;;;;;;-0.16;100.00;100044.91;6277955;28;20044;-69
2022/02/03 03:45:04;;;;;;;18.33;9.63;;;;;;;-0.24;100.00;100042.47;6295758;28;20074;-69
2022/02/03 03:48:07;;;;;;;21.85;9.50;;;;;;;-0.31;100.00;100056.25;6277845;28;20417;-68
2022/02/03 03:51:10;;;;;;;19.08;9.10;;;;;;;-0.36;100.00;100050.38;6295714;28;20079;-68
2022/02/03 03:54:23;;;;;;;20.70;9.65;;;;;;;-0.40;100.00;100044.44;6277768;28;20067;-73
2022/02/03 04:29:26;;;;;;;;;;;;;;;-0.58;100.00;100108.81;6320724;28;20047;-72
2022/02/03 04:39:39;;;;;;;37.13;15.65;;;;;;;-0.46;100.00;100147.09;6324560;28;20075;-73
2022/02/03 04:53:56;;;;;;;45.58;18.90;;;;;;;-0.38;100.00;100157.22;6324321;28;20065;-73
2022/02/03 05:00:50;;;;;;;27.95;12.68;;;;;;;-0.38;100.00;100168.31;6324193;28;20044;-73
2022/02/03 05:04:24;;;;;;;26.55;10.68;;;;;;;-0.38;100.00;100181.16;6294685;28;20128;-73
2022/02/03 05:11:39;;;;;;;18.83;9.15;;;;;;;-0.35;100.00;100188.81;6323982;28;20071;-73
2022/02/03 05:33:12;;;;;;;20.55;9.98;;;;;;;-0.40;100.00;100234.16;6324154;28;20042;-72
2022/02/03 05:53:07;;;;;;;13.65;8.13;;;;;;;-0.48;100.00;100288.09;6320605;28;20495;-72
2022/02/03 06:16:03;;;;;;;18.73;9.32;;;;;;;-0.33;100.00;100311.84;6286878;28;20069;-68
2022/02/03 06:28:48;;;;;;;18.42;8.73;;;;;;;-0.15;100.00;100342.41;6297049;28;20447;-68
2022/02/03 06:31:51;;;;;;;19.40;9.07;;;;;;;-0.13;100.00;100340.66;6308295;28;20070;-68
2022/02/03 06:34:52;;;;;;;14.80;8.68;;;;;;;-0.15;100.00;100356.94;6318178;28;20040;-72
2022/02/03 06:37:53;;;;;;;17.60;9.73;;;;;;;-0.17;100.00;100359.53;6316288;28;20048;-72
2022/02/03 06:40:54;;;;;;;19.55;9.85;;;;;;;-0.12;100.00;100360.34;6299097;28;20040;-72
2022/02/03 06:43:54;;;;;;;35.30;14.70;;;;;;;-0.09;100.00;100370.53;6261137;28;20060;-72
2022/02/03 06:47:00;;;;;;;51.58;21.92;;;;;;;-0.06;100.00;100377.38;6278239;28;20455;-72
2022/02/03 06:53:15;;;;;;;31.08;14.63;;;;;;;-0.12;100.00;100392.84;6271364;28;20409;-72
2022/02/03 06:56:34;;;;;;;27.23;12.57;;;;;;;-0.18;100.00;100390.34;6271033;28;20037;-72
2022/02/03 06:59:47;;;;;;;54.85;27.42;;;;;;;-0.21;100.00;100391.19;6256497;28;20075;-72
2022/02/03 07:02:52;;;;;;;70.05;32.45;;;;;;;-0.25;100.00;100394.66;6238801;28;20481;-72
2022/02/03 07:05:52;;;;;;;45.47;23.38;;;;;;;-0.34;100.00;100398.19;6253453;28;20055;-72
2022/02/03 07:08:54;;;;;;;33.38;17.33;;;;;;;-0.23;100.00;100404.06;6237169;28;20037;-72
2022/02/03 07:11:55;;;;;;;27.13;14.55;;;;;;;-0.19;100.00;100404.84;6253479;28;20041;-72
2022/02/03 07:14:55;;;;;;;26.17;12.48;;;;;;;-0.15;100.00;100403.97;6253423;28;20052;-72
2022/02/03 07:17:59;;;;;;;25.95;11.88;;;;;;;-0.09;100.00;100419.28;6236751;28;20115;-72
2022/02/03 07:21:00;;;;;;;19.10;10.50;;;;;;;-0.01;100.00;100432.88;6236684;28;20490;-72
2022/02/03 07:24:00;;;;;;;17.38;9.75;;;;;;;0.00;100.00;100431.16;6236854;28;20051;-72
2022/02/03 07:27:01;;;;;;;18.58;11.13;;;;;;;0.16;100.00;100434.38;6270887;28;20052;-72
2022/02/03 07:30:03;;;;;;;20.05;11.88;;;;;;;0.32;100.00;100440.19;6253167;28;20448;-72
2022/02/03 07:33:06;;;;;;;38.65;19.60;;;;;;;0.72;100.00;100448.22;6253407;28;20049;-72
2022/02/03 07:36:09;;;;;;;42.97;21.17;;;;;;;0.95;100.00;100444.47;6270626;28;20492;-72
2022/02/03 07:39:10;;;;;;;29.48;17.15;;;;;;;1.13;100.00;100451.88;6270814;28;20049;-73
2022/02/03 07:42:12;;;;;;;33.17;17.42;;;;;;;1.21;100.00;100446.59;6236739;28;20060;-73
2022/02/03 07:45:14;;;;;;;35.83;18.73;;;;;;;1.33;100.00;100448.13;6237091;28;20437;-73
2022/02/03 07:48:19;;;;;;;39.63;20.63;;;;;;;1.38;100.00;100447.19;6239586;28;20063;-69
2022/02/03 07:51:20;;;;;;;31.67;15.73;;;;;;;1.77;100.00;100459.34;6277751;28;20428;-69
2022/02/03 07:54:21;;;;;;;26.63;14.52;;;;;;;1.88;100.00;100465.16;6261274;28;20051;-69
2022/02/03 07:57:23;;;;;;;26.63;14.25;;;;;;;1.92;100.00;100468.53;6277470;28;20041;-69
2022/02/03 08:00:24;;;;;;;25.08;13.55;;;;;;;1.56;100.00;100468.28;6295425;28;20041;-69
2022/02/03 08:03:25;;;;;;;23.50;12.52;;;;;;;1.39;100.00;100481.44;6277407;28;20048;-70
2022/02/03 08:06:31;;;;;;;22.08;11.43;;;;;;;1.47;100.00;100487.31;6277711;28;20412;-70
2022/02/03 08:09:54;;;;;;;23.67;11.38;;;;;;;1.38;100.00;100495.16;6282938;28;20373;-69
2022/02/03 08:13:00;;;;;;;18.58;10.43;;;;;;;1.35;100.00;100492.66;6299936;28;20061;-70
2022/02/03 08:16:12;;;;;;;19.80;9.82;;;;;;;1.46;100.00;100495.03;6299910;28;20123;-70
2022/02/03 08:22:42;;;;;;;16.38;9.57;;;;;;;1.80;100.00;100508.19;6284137;28;20044;-75
2022/02/03 08:25:51;;;;;;;15.20;8.77;;;;;;;2.20;100.00;100516.03;6299769;28;20080;-75
2022/02/03 08:32:01;;;;;;;13.77;7.60;;;;;;;2.25;100.00;100499.66;6299633;28;20049;-75
2022/02/03 08:41:12;;;;;;;17.52;7.63;;;;;;;2.22;100.00;100518.56;6281794;28;20109;-75
2022/02/03 08:44:13;;;;;;;15.80;7.38;;;;;;;2.27;100.00;100524.50;6299357;28;20145;-75
2022/02/03 08:47:15;;;;;;;13.43;7.55;;;;;;;2.31;100.00;100526.13;6281365;28;20048;-75
2022/02/03 08:50:16;;;;;;;15.65;8.35;;;;;;;2.34;100.00;100526.06;6264731;28;20393;-75
2022/02/03 08:53:34;;;;;;;13.05;8.30;;;;;;;2.40;100.00;100531.06;6281253;28;20066;-75
2022/02/03 09:36:40;;;;;;;9.32;5.28;;;;;;;4.00;85.19;100561.00;6269099;28;20082;-75
2022/02/03 09:59:13;;;;;;;12.25;6.22;;;;;;;4.71;76.47;100555.63;6281917;28;20044;-75
2022/02/03 10:02:20;;;;;;;11.43;6.57;;;;;;;4.78;77.08;100549.41;6279654;28;20075;-75
2022/02/03 10:05:40;;;;;;;11.95;6.57;;;;;;;4.66;76.55;100544.59;6280263;28;20093;-75
2022/02/03 10:08:49;;;;;;;8.77;5.68;;;;;;;5.14;73.96;100536.25;6297167;28;20044;-75
2022/02/03 10:11:59;;;;;;;7.95;4.95;;;;;;;5.11;71.34;100550.13;6297270;28;20040;-75
2022/02/03 10:15:01;;;;;;;11.00;6.15;;;;;;;4.99;71.76;100546.19;6279349;28;20066;-75
2022/02/03 10:18:03;;;;;;;11.65;5.68;;;;;;;5.12;70.70;100541.47;6297037;28;20044;-75
2022/02/03 10:21:07;;;;;;;9.60;5.82;;;;;;;5.11;73.50;100534.63;6296969;28;20119;-75
2022/02/03 10:24:15;;;;;;;10.52;6.60;;;;;;;4.85;73.97;100533.66;6297006;28;20072;-75
2022/02/03 10:27:25;;;;;;;8.45;5.30;;;;;;;5.36;71.55;100531.28;6296816;28;20040;-76
2022/02/03 10:30:34;;;;;;;9.27;5.03;;;;;;;5.38;72.60;100545.00;6296115;28;20041;-75
2022/02/03 10:33:42;;;;;;;6.85;4.78;;;;;;;5.07;70.64;100548.53;6278882;28;20094;-76
2022/02/03 10:36:50;;;;;;;8.50;5.57;;;;;;;5.19;72.20;100548.16;6263251;28;20086;-75
2022/02/03 11:03:21;;;;;;;6.85;3.80;;;;;;;5.76;65.70;100545.50;6296137;28;20052;-75
2022/02/03 11:06:39;;;;;;;7.78;4.00;;;;;;;5.84;64.58;100539.16;6280564;28;20117;-75
2022/02/03 11:09:54;;;;;;;5.22;3.45;;;;;;;6.16;62.13;100541.59;6278360;28;20119;-76
2022/02/03 11:13:00;;;;;;;5.75;3.63;;;;;;;5.86;64.32;100542.53;6264474;28;20048;-76
2022/02/03 11:16:05;;;;;;;7.20;3.97;;;;;;;5.96;63.98;100526.72;6278354;28;20414;-76
2022/02/03 11:19:11;;;;;;;5.63;3.33;;;;;;;6.03;63.11;100529.06;6278140;28;20078;-70
2022/02/03 11:22:18;;;;;;;5.53;3.08;;;;;;;6.00;59.62;100525.72;6278109;28;20048;-71
2022/02/03 12:12:44;;;;;;;6.43;3.28;;;;;;;6.02;59.99;100539.47;6299937;28;20051;-70
2022/02/03 12:18:31;;;;;;;4.55;3.15;;;;;;;6.18;59.30;100537.22;6282690;28;20064;-70
2022/02/03 12:21:40;;;;;;;5.28;3.40;;;;;;;6.32;59.35;100545.34;6281743;28;20546;-75
2022/02/03 12:25:19;;;;;;;6.35;3.40;;;;;;;6.63;56.68;100545.06;6265505;28;20060;-75
2022/02/03 12:28:34;;;;;;;5.93;3.17;;;;;;;6.52;60.26;100554.13;6282102;28;20052;-75
2022/02/03 12:41:22;;;;;;;10.73;5.60;;;;;;;6.76;55.71;100565.38;6299325;28;20527;-75
2022/02/03 12:44:26;;;;;;;5.43;3.20;;;;;;;6.18;56.48;100574.31;6281519;28;20040;-75
2022/02/03 12:47:27;;;;;;;5.45;4.00;;;;;;;6.77;58.13;100570.47;6299286;28;20037;-75
2022/02/03 12:50:31;;;;;;;8.98;5.88;;;;;;;6.68;58.60;100580.34;6248269;28;20053;-75
2022/02/03 12:53:35;;;;;;;5.90;4.13;;;;;;;6.51;55.38;100588.75;6280553;28;20037;-74
2022/02/03 12:56:36;;;;;;;8.32;3.45;;;;;;;6.77;55.71;100593.81;6299198;28;20123;-74
2022/02/03 12:59:36;;;;;;;5.53;3.50;;;;;;;6.70;54.92;100594.13;6281130;28;20066;-74
2022/02/03 13:02:37;;;;;;;4.57;3.28;;;;;;;6.07;55.25;100609.25;6299102;28;20074;-74
2022/02/03 13:05:42;;;;;;;6.45;4.22;;;;;;;6.45;57.06;100600.19;6281003;28;20117;-74
2022/02/03 13:08:49;;;;;;;8.23;4.45;;;;;;;6.13;57.94;100606.47;6298821;28;20045;-74
2022/02/03 13:11:56;;;;;;;5.28;3.50;;;;;;;6.05;59.09;100598.94;6298593;28;20055;-74
2022/02/03 13:15:00;;;;;;;7.18;3.72;;;;;;;5.70;59.22;100590.53;6249681;28;20040;-74
2022/02/03 13:18:06;;;;;;;6.45;3.80;;;;;;;5.98;59.43;100598.31;6281114;28;20041;-74
2022/02/03 13:21:31;;;;;;;6.78;4.88;;;;;;;6.38;57.57;100603.88;6264994;28;20052;-74
2022/02/03 13:28:17;;;;;;;5.00;3.47;;;;;;;5.41;60.56;100610.44;6221312;28;20050;-74
2022/02/03 13:31:29;;;;;;;5.57;3.70;;;;;;;5.24;63.39;100608.38;6205698;28;20576;-74
2022/02/03 13:34:36;;;;;;;5.25;3.72;;;;;;;5.47;59.54;100612.00;6298060;28;20447;-74
2022/02/03 13:37:42;;;;;;;7.18;4.93;;;;;;;5.67;61.49;100602.78;6264697;28;20041;-70
2022/02/03 13:40:43;;;;;;;7.13;4.05;;;;;;;5.90;60.70;100600.28;6263341;28;20118;-68
2022/02/03 13:43:45;;;;;;;5.43;3.78;;;;;;;5.75;59.01;100599.03;6247324;28;20052;-69
2022/02/03 13:46:46;;;;;;;8.38;5.30;;;;;;;5.83;61.31;100596.19;6280113;28;20041;-70
2022/02/03 13:50:03;;;;;;;6.70;4.25;;;;;;;6.02;60.83;100605.06;6297526;28;20052;-70
2022/02/03 13:53:18;;;;;;;5.80;3.50;;;;;;;5.78;62.87;100605.84;6297700;28;20044;-70
2022/02/03 14:17:26;;;;;;;7.53;4.78;;;;;;;5.27;66.25;100609.16;6297013;28;20048;-69
2022/02/03 14:29:28;;;;;;;6.53;4.07;;;;;;;5.16;66.33;100601.72;6296622;28;20049;-69
2022/02/03 14:32:37;;;;;;;6.72;3.67;;;;;;;5.08;65.94;100590.75;6279226;28;20102;-69
2022/02/03 14:35:39;;;;;;;66.30;26.30;;;;;;;5.00;67.46;100594.44;6296590;28;20044;-69
2022/02/03 14:39:08;;;;;;;32.23;18.70;;;;;;;5.00;67.96;100583.22;6279137;28;20052;-69
2022/02/03 14:42:09;;;;;;;11.13;7.45;;;;;;;4.92;67.18;100590.34;6282796;28;20481;-68
2022/02/03 14:45:13;;;;;;;9.85;6.53;;;;;;;4.85;68.18;100594.88;6278861;28;20123;-69
2022/02/03 14:48:15;;;;;;;8.82;5.80;;;;;;;4.77;69.70;100595.06;6278598;28;20052;-68
2022/02/03 14:51:22;;;;;;;;;;;;;;;4.75;68.74;100603.78;6297235;28;20044;-68
2022/02/03 15:00:49;;;;;;;6.22;4.03;;;;;;;4.44;70.75;100589.94;6296659;28;20494;-69
2022/02/03 15:03:54;;;;;;;8.13;5.53;;;;;;;4.41;71.31;100595.22;6296209;28;20083;-69
2022/02/03 15:07:02;;;;;;;11.60;6.93;;;;;;;4.30;72.30;100594.63;6296012;28;20041;-69
2022/02/03 15:13:33;;;;;;;11.63;7.13;;;;;;;4.25;73.03;100604.25;6295762;28;20036;-69
2022/02/03 15:16:27;;;;;;;9.85;6.53;;;;;;;4.08;74.71;100598.66;6279208;28;20060;-69
2022/02/03 15:19:27;;;;;;;12.63;5.97;;;;;;;3.99;76.55;100592.84;6278241;28;20036;-69
2022/02/03 15:22:28;;;;;;;10.48;6.03;;;;;;;3.92;76.39;100593.91;6295833;28;20041;-69
2022/02/03 15:25:30;;;;;;;8.95;5.88;;;;;;;3.86;76.75;100593.22;6277978;28;20047;-69
2022/02/03 15:28:31;;;;;;;11.18;7.78;;;;;;;3.76;77.00;100595.16;6295822;28;20048;-69
2022/02/03 15:31:33;;;;;;;30.58;14.95;;;;;;;3.67;77.68;100591.09;6277758;28;20044;-69
2022/02/03 15:34:34;;;;;;;29.53;15.90;;;;;;;3.65;77.49;100595.44;6278023;28;20044;-69
2022/02/03 15:37:35;;;;;;;23.73;12.45;;;;;;;3.67;77.53;100600.56;6261275;28;20072;-73
2022/02/03 15:40:37;;;;;;;18.23;11.25;;;;;;;3.59;77.73;100593.84;6277763;28;20265;-73
2022/02/03 15:43:40;;;;;;;12.90;8.07;;;;;;;3.56;77.68;100608.53;6295439;28;20044;-73
2022/02/03 15:46:51;;;;;;;11.70;6.85;;;;;;;3.44;77.56;100601.94;6277775;28;20036;-74
2022/02/03 16:03:07;;;;;;;21.52;12.43;;;;;;;2.96;79.32;100608.09;6295168;28;20094;-69
2022/02/03 16:52:48;;;;;;;26.88;11.80;;;;;;;2.12;83.25;100600.28;6298943;28;20075;-73
2022/02/03 16:55:49;;;;;;;22.35;12.07;;;;;;;2.02;82.65;100588.47;6281730;28;20047;-73
2022/02/03 16:58:50;;;;;;;29.55;14.35;;;;;;;2.09;82.08;100587.47;6280773;28;20484;-73
2022/02/03 17:01:51;;;;;;;24.75;12.27;;;;;;;2.04;82.14;100593.56;6264410;28;20098;-73
2022/02/03 17:04:53;;;;;;;29.33;13.48;;;;;;;1.99;82.40;100585.91;6281105;28;20044;-73
2022/02/03 17:07:55;;;;;;;33.50;16.25;;;;;;;1.92;83.00;100585.19;6298875;28;20045;-73
2022/02/03 17:10:56;;;;;;;52.70;24.17;;;;;;;1.83;83.82;100580.16;6281036;28;20158;-72
2022/02/03 17:13:58;;;;;;;33.00;17.58;;;;;;;1.68;84.20;100573.56;6280895;28;20036;-73
2022/02/03 17:16:59;;;;;;;45.40;20.67;;;;;;;1.63;84.26;100574.50;6298718;28;20047;-73
2022/02/03 17:20:00;;;;;;;56.83;24.67;;;;;;;1.53;84.99;100581.53;6280693;28;20048;-73
2022/02/03 17:23:04;;;;;;;30.45;14.82;;;;;;;1.61;84.22;100580.53;6298427;28;20048;-73
2022/02/03 17:26:12;;;;;;;20.83;11.30;;;;;;;1.66;83.81;100570.16;6280533;28;20040;-73
2022/02/03 17:29:24;;;;;;;35.17;18.23;;;;;;;1.64;83.64;100573.66;6281607;28;20512;-73
2022/02/03 18:35:47;;;;;;;16.92;9.90;;;;;;;1.13;86.99;100540.97;6281705;28;20041;-69
2022/02/03 18:52:24;;;;;;;17.05;9.30;;;;;;;1.04;87.44;100552.25;6295922;28;20450;-69
2022/02/03 18:55:35;;;;;;;19.80;9.85;;;;;;;1.19;86.90;100554.59;6296647;28;20044;-70
2022/02/03 19:29:14;;;;;;;25.42;11.68;;;;;;;0.50;97.52;100559.78;6280816;28;20055;-73
2022/02/03 20:05:26;;;;;;;22.08;10.10;;;;;;;0.46;100.00;100541.00;6283128;28;20044;-73
2022/02/03 20:08:42;;;;;;;17.50;10.02;;;;;;;0.46;100.00;100543.56;6269067;28;20405;-73
2022/02/03 20:11:44;;;;;;;20.20;10.15;;;;;;;0.49;100.00;100538.38;6300265;28;20503;-73
2022/02/03 20:14:45;;;;;;;27.30;11.45;;;;;;;0.57;100.00;100541.69;6299922;28;20437;-73
2022/02/03 20:17:46;;;;;;;17.50;9.57;;;;;;;0.45;100.00;100538.44;6282234;28;20097;-73
2022/02/03 20:20:48;;;;;;;16.60;8.65;;;;;;;0.59;100.00;100531.41;6282550;28;20040;-73
2022/02/03 20:23:50;;;;;;;17.40;9.20;;;;;;;0.44;100.00;100519.63;6299934;28;20044;-73
2022/02/03 20:26:51;;;;;;;22.70;9.80;;;;;;;0.51;100.00;100517.81;6299802;28;20515;-73
2022/02/03 20:29:54;;;;;;;16.90;8.95;;;;;;;0.49;100.00;100514.41;6282167;28;20040;-69
2022/02/03 20:32:55;;;;;;;;;;;;;;;0.53;100.00;100519.50;6300134;28;20068;-73
2022/02/03 20:35:57;;;;;;;17.08;8.40;;;;;;;0.52;100.00;100511.84;6299425;28;20019;-73
2022/02/03 20:38:59;;;;;;;;;;;;;;;0.55;100.00;100514.34;6299993;28;20063;-73
2022/02/03 20:42:00;;;;;;;11.55;7.32;;;;;;;0.48;100.00;100500.75;6281653;28;19973;-73
2022/02/03 20:45:01;;;;;;;14.10;7.38;;;;;;;0.50;100.00;100504.13;6281494;28;20041;-73
2022/02/03 20:48:03;;;;;;;16.17;7.78;;;;;;;0.42;100.00;100508.53;6299371;28;20041;-73
2022/02/03 20:51:05;;;;;;;11.50;6.90;;;;;;;0.46;100.00;100505.03;6240812;28;20057;-73
2022/02/03 20:54:06;;;;;;;13.63;7.20;;;;;;;0.41;100.00;100501.66;6274243;28;20080;-73
2022/02/03 20:57:07;;;;;;;17.35;7.43;;;;;;;0.46;100.00;100497.34;6240263;28;20053;-73
2022/02/03 21:03:27;;;;;;;12.20;7.32;;;;;;;0.36;100.00;100506.88;6240372;28;20508;-73
2022/02/03 21:06:28;;;;;;;10.52;4.88;;;;;;;0.33;100.00;100500.91;6242160;28;20040;-73
2022/02/03 21:09:29;;;;;;;10.23;5.93;;;;;;;0.32;100.00;100502.63;6255982;28;20075;-73
2022/02/03 21:12:30;;;;;;;16.33;7.85;;;;;;;0.34;100.00;100498.34;6256111;28;20083;-73
2022/02/03 21:15:35;;;;;;;12.73;7.95;;;;;;;0.28;100.00;100502.69;6255386;28;20044;-74
2022/02/03 21:18:40;;;;;;;12.13;6.55;;;;;;;0.32;100.00;100500.06;6256723;28;20049;-74
2022/02/03 21:21:41;;;;;;;12.30;6.68;;;;;;;0.33;100.00;100495.78;6273653;28;20501;-74
2022/02/03 21:24:42;;;;;;;11.90;6.90;;;;;;;0.33;100.00;100506.91;6255854;28;20045;-68
2022/02/03 21:27:44;;;;;;;10.38;6.72;;;;;;;0.31;100.00;100500.94;6255727;28;20115;-68
2022/02/03 21:30:48;;;;;;;16.42;7.50;;;;;;;0.31;100.00;100492.38;6273481;28;20053;-68
2022/02/03 21:33:55;;;;;;;15.25;7.95;;;;;;;0.38;100.00;100488.88;6273355;28;20063;-68
2022/02/03 21:36:56;;;;;;;15.07;7.50;;;;;;;0.48;100.00;100487.06;6273288;28;20132;-69
2022/02/03 21:39:57;;;;;;;17.20;8.75;;;;;;;0.45;100.00;100490.50;6239214;28;20170;-68
2022/02/03 21:42:58;;;;;;;13.90;7.78;;;;;;;0.40;100.00;100485.41;6255655;28;20420;-69
2022/02/03 21:45:59;;;;;;;11.35;7.05;;;;;;;0.46;100.00;100481.94;6273244;28;20036;-68
2022/02/03 21:49:00;;;;;;;14.23;7.97;;;;;;;0.38;100.00;100492.28;6262204;28;20067;-68
2022/02/03 21:52:00;;;;;;;18.40;8.48;;;;;;;0.49;100.00;100488.75;6297878;28;20041;-68
2022/02/03 21:55:04;;;;;;;16.65;7.88;;;;;;;0.42;100.00;100487.13;6297624;28;20041;-68
2022/02/03 21:58:05;;;;;;;13.20;7.53;;;;;;;0.42;100.00;100485.41;6297775;28;20566;-68
2022/02/03 22:01:06;;;;;;;14.23;8.00;;;;;;;0.40;100.00;100480.28;6297602;28;20590;-69
2022/02/03 22:04:07;;;;;;;15.50;8.27;;;;;;;0.38;100.00;100487.16;6297612;28;20048;-73
2022/02/03 22:07:08;;;;;;;20.10;8.98;;;;;;;0.34;100.00;100490.63;6263129;28;20045;-73
2022/02/03 22:10:11;;;;;;;16.23;8.27;;;;;;;0.38;100.00;100486.31;6297650;28;20054;-73
2022/02/03 22:13:12;;;;;;;16.58;8.85;;;;;;;0.44;100.00;100490.53;6279942;28;20037;-73
2022/02/03 22:16:19;;;;;;;17.80;8.80;;;;;;;0.37;100.00;100493.19;6297158;28;20040;-73
2022/02/03 22:19:20;;;;;;;19.17;8.35;;;;;;;0.36;100.00;100490.63;6297241;28;20041;-73
2022/02/03 22:22:52;;;;;;;13.98;7.85;;;;;;;0.30;100.00;100483.84;6279186;28;20532;-73
2022/02/03 22:38:34;;;;;;;16.70;8.13;;;;;;;0.32;100.00;100489.81;6296991;28;20512;-68
2022/02/03 22:39:22;;;;;;;15.68;8.52;;;;;;;0.31;100.00;100477.84;6296638;28;20062;-69
2022/02/03 22:45:57;;;;;;;15.10;8.38;;;;;;;0.11;100.00;100487.50;6274532;28;20052;-69
2022/02/03 22:48:58;;;;;;;15.25;7.70;;;;;;;0.13;100.00;100484.03;6279986;28;20059;-68
2022/02/03 22:51:59;;;;;;;16.05;8.75;;;;;;;0.27;100.00;100473.63;6278850;28;20033;-68
2022/02/03 22:55:00;;;;;;;15.00;9.85;;;;;;;0.29;100.00;100474.44;6278629;28;20139;-69
2022/02/03 22:58:23;;;;;;;17.30;9.50;;;;;;;0.25;100.00;100477.03;6278439;28;20184;-73
2022/02/03 23:01:25;;;;;;;14.75;8.65;;;;;;;0.31;100.00;100471.84;6296136;28;20051;-74
2022/02/03 23:04:26;;;;;;;18.50;8.95;;;;;;;0.24;100.00;100470.22;6278940;28;20470;-74
2022/02/03 23:07:53;;;;;;;18.63;10.55;;;;;;;0.22;100.00;100474.53;6296096;28;20036;-74
2022/02/03 23:14:15;;;;;;;19.60;9.75;;;;;;;0.19;100.00;100485.69;6279577;28;20140;-73
2022/02/03 23:20:44;;;;;;;16.50;9.50;;;;;;;0.25;100.00;100465.09;6295907;28;20072;-73
2022/02/03 23:23:45;;;;;;;19.00;9.57;;;;;;;0.19;100.00;100468.56;6296033;28;20150;-73
2022/02/03 23:26:53;;;;;;;16.83;9.20;;;;;;;0.26;100.00;100459.06;6261636;28;20512;-73
2022/02/03 23:29:55;;;;;;;17.02;9.30;;;;;;;0.20;100.00;100454.84;6278306;28;20113;-74
2022/02/03 23:32:56;;;;;;;18.25;9.52;;;;;;;0.11;100.00;100454.13;6295778;28;20046;-73
2022/02/03 23:35:57;;;;;;;17.35;9.75;;;;;;;0.11;100.00;100451.56;6278305;28;20123;-73
2022/02/03 23:39:14;;;;;;;16.95;9.82;;;;;;;0.22;100.00;100443.72;6300297;28;20040;-73
2022/02/03 23:46:11;;;;;;;16.08;8.70;;;;;;;0.16;100.00;100444.66;6300962;28;20050;-73
